createdAt,value
2022-10-17T00:00:55.462Z,15.50
2022-10-17T00:03:23.469Z,15.60
2022-10-17T00:05:51.490Z,15.60
2022-10-17T00:08:19.957Z,15.60
2022-10-17T00:10:56.912Z,15.60
2022-10-17T00:13:27.148Z,15.50
2022-10-17T00:15:55.535Z,15.60
2022-10-17T00:18:26.323Z,15.60
2022-10-17T00:20:54.596Z,15.60
2022-10-17T00:23:23.067Z,15.60
2022-10-17T00:25:59.529Z,15.60
2022-10-17T00:28:28.974Z,15.60
2022-10-17T00:30:58.921Z,15.50
2022-10-17T00:33:27.261Z,15.50
2022-10-17T00:36:04.631Z,15.50
2022-10-17T00:38:32.782Z,15.50
2022-10-17T00:41:00.829Z,15.50
2022-10-17T00:43:30.910Z,15.50
2022-10-17T00:45:58.959Z,15.60
2022-10-17T00:48:27.268Z,15.60
2022-10-17T00:50:56.236Z,15.60
2022-10-17T00:53:24.701Z,15.60
2022-10-17T00:55:54.914Z,15.50
2022-10-17T00:58:23.236Z,15.50
2022-10-17T01:00:52.614Z,15.60
2022-10-17T01:03:20.595Z,15.60
2022-10-17T01:05:48.631Z,15.50
2022-10-17T01:08:16.721Z,15.60
2022-10-17T01:10:55.735Z,15.60
2022-10-17T01:13:29.378Z,15.50
2022-10-17T01:16:06.468Z,15.50
2022-10-17T01:18:47.299Z,15.60
2022-10-17T01:21:30.344Z,15.50
2022-10-17T01:24:31.914Z,15.50
2022-10-17T01:27:36.240Z,15.50
2022-10-17T01:30:26.763Z,15.50
2022-10-17T01:32:59.642Z,15.50
2022-10-17T01:35:33.807Z,15.50
2022-10-17T01:38:08.883Z,15.50
2022-10-17T01:40:43.215Z,15.50
2022-10-17T01:43:17.172Z,15.40
2022-10-17T01:45:50.611Z,15.50
2022-10-17T01:48:23.860Z,15.50
2022-10-17T01:50:55.427Z,15.50
2022-10-17T01:53:29.894Z,15.40
2022-10-17T01:56:01.339Z,15.40
2022-10-17T01:58:33.115Z,15.40
2022-10-17T02:01:05.859Z,15.40
2022-10-17T02:03:36.192Z,15.40
2022-10-17T02:06:07.559Z,15.40
2022-10-17T02:08:43.946Z,15.40
2022-10-17T02:11:16.086Z,15.40
2022-10-17T02:13:57.475Z,15.40
2022-10-17T02:16:35.342Z,15.40
2022-10-17T02:19:15.884Z,15.40
2022-10-17T02:21:50.278Z,15.40
2022-10-17T02:24:26.427Z,15.40
2022-10-17T02:27:00.585Z,15.40
2022-10-17T02:29:32.355Z,15.40
2022-10-17T02:32:07.494Z,15.30
2022-10-17T02:34:42.488Z,15.30
2022-10-17T02:37:13.939Z,15.30
2022-10-17T02:39:43.675Z,15.30
2022-10-17T02:42:15.076Z,15.30
2022-10-17T02:44:45.890Z,15.30
2022-10-17T02:47:22.090Z,15.30
2022-10-17T02:49:55.296Z,15.30
2022-10-17T02:52:29.769Z,15.30
2022-10-17T02:55:04.247Z,15.30
2022-10-17T02:57:37.640Z,15.30
2022-10-17T03:00:10.011Z,15.30
2022-10-17T03:02:42.926Z,15.20
2022-10-17T03:05:15.366Z,15.20
2022-10-17T03:07:43.376Z,15.30
2022-10-17T03:10:11.798Z,15.30
2022-10-17T03:12:40.084Z,15.30
2022-10-17T03:15:09.957Z,15.30
2022-10-17T03:17:38.343Z,15.30
2022-10-17T03:20:08.216Z,15.30
2022-10-17T03:22:37.650Z,15.30
2022-10-17T03:25:07.586Z,15.20
2022-10-17T03:27:37.259Z,15.20
2022-10-17T03:30:06.840Z,15.20
2022-10-17T03:32:36.081Z,15.20
2022-10-17T03:35:04.602Z,15.20
2022-10-17T03:37:32.959Z,15.10
2022-10-17T03:40:02.711Z,15.10
2022-10-17T03:42:32.723Z,15.10
2022-10-17T03:45:00.735Z,15.10
2022-10-17T03:47:29.789Z,15.10
2022-10-17T03:49:57.986Z,15.10
2022-10-17T03:52:26.123Z,15.10
2022-10-17T03:54:54.304Z,15.10
2022-10-17T03:57:23.674Z,15.10
2022-10-17T03:59:52.363Z,15.10
2022-10-17T04:02:21.863Z,15.10
2022-10-17T04:04:50.908Z,15.10
2022-10-17T04:07:19.579Z,15.10
2022-10-17T04:09:49.598Z,15.10
2022-10-17T04:12:24.349Z,15.10
2022-10-17T04:14:52.424Z,15.20
2022-10-17T04:17:22.165Z,15.10
2022-10-17T04:19:50.813Z,15.10
2022-10-17T04:22:19.611Z,15.10
2022-10-17T04:24:48.267Z,15.10
2022-10-17T04:27:29.981Z,15.10
2022-10-17T04:29:58.387Z,15.10
2022-10-17T04:32:26.901Z,15.20
2022-10-17T04:34:59.965Z,15.20
2022-10-17T04:37:31.193Z,15.20
2022-10-17T04:40:01.179Z,15.20
2022-10-17T04:42:33.673Z,15.20
2022-10-17T04:45:01.758Z,15.20
2022-10-17T04:47:29.873Z,15.10
2022-10-17T04:49:57.968Z,15.10
2022-10-17T04:52:26.578Z,15.00
2022-10-17T04:54:55.302Z,15.00
2022-10-17T04:57:23.729Z,15.00
2022-10-17T05:00:00.897Z,15.00
2022-10-17T05:03:07.184Z,15.00
2022-10-17T05:05:38.901Z,15.00
2022-10-17T05:08:07.134Z,14.90
2022-10-17T05:10:37.679Z,14.90
2022-10-17T05:13:07.266Z,15.00
2022-10-17T05:15:38.485Z,15.00
2022-10-17T05:18:07.691Z,14.90
2022-10-17T05:20:36.531Z,15.00
2022-10-17T05:23:04.784Z,15.00
2022-10-17T05:25:37.135Z,15.00
2022-10-17T05:28:05.273Z,15.00
2022-10-17T05:30:36.711Z,15.00
2022-10-17T05:33:07.939Z,15.00
2022-10-17T05:35:36.038Z,15.00
2022-10-17T05:38:04.282Z,15.00
2022-10-17T05:40:34.986Z,15.00
2022-10-17T05:43:04.140Z,15.00
2022-10-17T05:45:32.365Z,15.00
2022-10-17T05:48:01.185Z,15.00
2022-10-17T05:50:32.331Z,15.00
2022-10-17T05:53:11.677Z,15.00
2022-10-17T05:55:44.817Z,15.00
2022-10-17T05:58:21.845Z,15.00
2022-10-17T06:00:51.780Z,14.90
2022-10-17T06:03:19.836Z,14.90
2022-10-17T06:05:49.388Z,15.00
2022-10-17T06:08:17.523Z,15.00
2022-10-17T06:10:49.284Z,15.00
2022-10-17T06:13:17.993Z,15.00
2022-10-17T06:15:50.069Z,15.00
2022-10-17T06:18:19.139Z,15.00
2022-10-17T06:20:49.398Z,14.90
2022-10-17T06:23:19.541Z,14.90
2022-10-17T06:26:00.437Z,15.00
2022-10-17T06:28:29.922Z,15.00
2022-10-17T06:30:58.953Z,15.00
2022-10-17T06:33:28.104Z,15.00
2022-10-17T06:35:57.967Z,15.10
2022-10-17T06:38:27.485Z,15.10
2022-10-17T06:41:04.900Z,15.10
2022-10-17T06:43:33.235Z,15.10
2022-10-17T06:46:21.083Z,15.10
2022-10-17T06:49:18.164Z,15.10
2022-10-17T06:51:53.135Z,15.10
2022-10-17T06:54:27.973Z,15.10
2022-10-17T06:57:07.935Z,15.10
2022-10-17T07:00:02.419Z,15.10
2022-10-17T07:02:40.308Z,15.20
2022-10-17T07:05:08.877Z,15.20
2022-10-17T07:07:40.190Z,15.30
2022-10-17T07:10:11.315Z,15.30
2022-10-17T07:12:40.842Z,15.30
2022-10-17T07:15:09.826Z,15.30
2022-10-17T07:17:37.848Z,15.40
2022-10-17T07:20:06.567Z,15.40
2022-10-17T07:22:37.943Z,15.40
2022-10-17T07:25:07.101Z,15.50
2022-10-17T07:27:41.813Z,15.50
2022-10-17T07:30:11.382Z,15.60
2022-10-17T07:32:41.777Z,15.60
2022-10-17T07:35:11.375Z,15.60
2022-10-17T07:37:41.918Z,15.60
2022-10-17T07:40:10.641Z,15.70
2022-10-17T07:45:08.967Z,15.80
2022-10-17T07:47:38.028Z,15.80
2022-10-17T07:50:09.366Z,15.90
2022-10-17T07:52:37.621Z,15.90
2022-10-17T07:55:08.767Z,16.00
2022-10-17T07:57:36.855Z,16.00
2022-10-17T08:00:05.595Z,16.00
2022-10-17T08:02:40.567Z,16.10
2022-10-17T08:05:09.247Z,16.10
2022-10-17T08:07:37.423Z,16.20
2022-10-17T08:12:40.699Z,16.30
2022-10-17T08:15:10.673Z,16.30
2022-10-17T08:17:39.779Z,16.30
2022-10-17T08:20:08.621Z,16.40
2022-10-17T08:22:36.659Z,16.40
2022-10-17T08:25:05.312Z,16.40
2022-10-17T08:27:35.322Z,16.40
2022-10-17T08:30:04.119Z,16.40
2022-10-17T08:32:32.508Z,16.40
2022-10-17T08:35:01.135Z,16.40
2022-10-17T08:37:30.428Z,16.40
2022-10-17T08:39:58.741Z,16.40
2022-10-17T08:42:43.532Z,16.50
2022-10-17T08:45:20.693Z,16.50
2022-10-17T08:47:52.614Z,16.50
2022-10-17T08:50:31.473Z,16.60
2022-10-17T08:53:05.417Z,16.60
2022-10-17T08:55:39.976Z,16.60
2022-10-17T08:58:16.517Z,16.60
2022-10-17T09:00:51.687Z,16.70
2022-10-17T09:03:33.516Z,16.70
2022-10-17T09:06:13.728Z,16.70
2022-10-17T09:08:50.503Z,16.70
2022-10-17T09:11:31.831Z,16.80
2022-10-17T09:14:12.220Z,16.70
2022-10-17T09:17:08.446Z,16.70
2022-10-17T09:19:39.769Z,16.70
2022-10-17T09:22:11.882Z,16.70
2022-10-17T09:24:44.721Z,16.80
2022-10-17T09:27:24.042Z,16.80
2022-10-17T09:30:26.852Z,16.80
2022-10-17T09:33:02.467Z,16.80
2022-10-17T09:35:31.123Z,16.90
2022-10-17T09:37:59.754Z,16.90
2022-10-17T09:40:33.930Z,16.90
2022-10-17T09:43:06.618Z,16.90
2022-10-17T09:45:44.107Z,17.00
2022-10-17T09:48:21.217Z,17.00
2022-10-17T09:50:57.880Z,17.00
2022-10-17T09:53:39.819Z,17.00
2022-10-17T09:56:15.927Z,17.00
2022-10-17T09:58:45.667Z,17.10
2022-10-17T10:01:23.693Z,17.10
2022-10-17T10:04:11.088Z,17.10
2022-10-17T10:06:39.318Z,17.10
2022-10-17T10:11:57.493Z,17.10
2022-10-17T10:14:29.861Z,17.10
2022-10-17T10:16:59.234Z,17.10
2022-10-17T10:19:31.251Z,17.10
2022-10-17T10:22:01.152Z,17.10
2022-10-17T10:24:31.088Z,17.10
2022-10-17T10:27:02.179Z,17.10
2022-10-17T10:29:32.478Z,17.10
2022-10-17T10:32:12.144Z,17.10
2022-10-17T10:34:48.863Z,17.10
2022-10-17T10:37:20.977Z,17.20
2022-10-17T10:39:51.194Z,17.20
2022-10-17T10:42:23.427Z,17.20
2022-10-17T10:44:52.796Z,17.20
2022-10-17T10:47:26.199Z,17.20
2022-10-17T10:50:10.079Z,17.20
2022-10-17T10:52:44.171Z,17.20
2022-10-17T10:55:24.634Z,17.20
2022-10-17T10:57:57.725Z,17.20
2022-10-17T11:00:29.049Z,17.20
2022-10-17T11:03:12.744Z,17.10
2022-10-17T11:05:45.139Z,17.20
2022-10-17T11:08:24.387Z,17.20
2022-10-17T11:11:04.937Z,17.20
2022-10-17T11:13:37.288Z,17.20
2022-10-17T11:16:17.583Z,17.20
2022-10-17T11:18:50.562Z,17.20
2022-10-17T11:21:26.504Z,17.20
2022-10-17T11:24:02.260Z,17.20
2022-10-17T11:26:36.562Z,17.20
2022-10-17T11:29:08.123Z,17.20
2022-10-17T11:31:40.645Z,17.20
2022-10-17T11:34:19.502Z,17.20
2022-10-17T11:36:51.599Z,17.20
2022-10-17T11:39:23.644Z,17.20
2022-10-17T11:41:55.604Z,17.20
2022-10-17T11:44:26.365Z,17.20
2022-10-17T11:46:59.653Z,17.20
2022-10-17T11:49:38.210Z,17.20
2022-10-17T11:52:44.021Z,17.30
2022-10-17T11:55:16.911Z,17.30
2022-10-17T11:57:59.491Z,17.30
2022-10-17T12:00:40.840Z,17.30
2022-10-17T12:03:24.008Z,17.30
2022-10-17T12:06:00.104Z,17.30
2022-10-17T12:08:34.714Z,17.30
2022-10-17T12:11:08.501Z,17.40
2022-10-17T12:13:51.963Z,17.40
2022-10-17T12:16:43.600Z,17.40
2022-10-17T12:19:33.892Z,17.40
2022-10-17T12:22:13.965Z,17.40
2022-10-17T12:24:43.529Z,17.40
2022-10-17T12:27:32.969Z,17.40
2022-10-17T12:30:02.502Z,17.40
2022-10-17T12:32:46.839Z,17.40
2022-10-17T12:35:22.257Z,17.40
2022-10-17T12:38:28.623Z,17.40
2022-10-17T12:41:02.061Z,17.40
2022-10-17T12:43:54.651Z,17.40
2022-10-17T12:46:59.495Z,17.50
2022-10-17T12:49:49.678Z,17.50
2022-10-17T12:52:25.535Z,17.50
2022-10-17T12:55:13.999Z,17.50
2022-10-17T12:57:49.941Z,17.50
2022-10-17T13:00:23.602Z,17.50
2022-10-17T13:02:55.375Z,17.50
2022-10-17T13:05:28.625Z,17.50
2022-10-17T13:08:00.116Z,17.50
2022-10-17T13:10:31.690Z,17.60
2022-10-17T13:13:06.612Z,17.60
2022-10-17T13:15:35.674Z,17.60
2022-10-17T13:18:03.671Z,17.50
2022-10-17T13:20:32.702Z,17.50
2022-10-17T13:23:01.186Z,17.50
2022-10-17T13:25:30.533Z,17.50
2022-10-17T13:28:07.595Z,17.50
2022-10-17T13:30:37.563Z,17.50
2022-10-17T13:33:24.937Z,17.60
2022-10-17T13:36:00.382Z,17.60
2022-10-17T13:38:32.352Z,17.60
2022-10-17T13:41:30.036Z,17.60
2022-10-17T13:43:52.031Z,17.60
2022-10-17T13:46:39.596Z,17.60
2022-10-17T13:49:17.741Z,17.60
2022-10-17T13:51:48.602Z,17.60
2022-10-17T13:54:41.481Z,17.60
2022-10-17T13:57:21.643Z,17.60
2022-10-17T13:59:54.901Z,17.60
2022-10-17T14:02:26.259Z,17.60
2022-10-17T14:05:17.138Z,17.60
2022-10-17T14:08:10.699Z,17.70
2022-10-17T14:10:41.103Z,17.60
2022-10-17T14:13:22.596Z,17.60
2022-10-17T14:15:51.382Z,17.60
2022-10-17T14:18:22.629Z,17.60
2022-10-17T14:23:42.057Z,17.60
2022-10-17T14:26:14.032Z,17.60
2022-10-17T14:28:45.695Z,17.60
2022-10-17T14:31:22.385Z,17.60
2022-10-17T14:33:51.937Z,17.60
2022-10-17T14:36:21.492Z,17.60
2022-10-17T14:38:52.622Z,17.60
2022-10-17T14:44:22.771Z,17.60
2022-10-17T14:46:56.210Z,17.60
2022-10-17T14:49:36.239Z,17.60
2022-10-17T14:52:26.359Z,17.70
2022-10-17T14:54:55.188Z,17.60
2022-10-17T14:57:41.548Z,17.70
2022-10-17T15:00:15.965Z,17.70
2022-10-17T15:02:44.709Z,17.70
2022-10-17T15:05:13.652Z,17.70
2022-10-17T15:07:42.101Z,17.70
2022-10-17T15:10:32.870Z,17.70
2022-10-17T15:13:26.158Z,17.70
2022-10-17T15:15:52.245Z,17.70
2022-10-17T15:18:20.476Z,17.70
2022-10-17T15:20:55.298Z,17.70
2022-10-17T15:23:32.839Z,17.70
2022-10-17T15:26:02.787Z,17.70
2022-10-17T15:28:30.917Z,17.70
2022-10-17T15:31:00.412Z,17.70
2022-10-17T15:33:28.702Z,17.70
2022-10-17T15:38:29.845Z,17.70
2022-10-17T15:40:57.922Z,17.70
2022-10-17T15:43:25.963Z,17.70
2022-10-17T15:45:54.208Z,17.70
2022-10-17T15:48:30.514Z,17.70
2022-10-17T15:50:58.789Z,17.60
2022-10-17T15:53:27.297Z,17.70
2022-10-17T15:55:55.398Z,17.60
2022-10-17T15:58:23.489Z,17.60
2022-10-17T16:00:51.675Z,17.60
2022-10-17T16:03:19.799Z,17.60
2022-10-17T16:05:49.301Z,17.60
2022-10-17T16:08:17.333Z,17.60
2022-10-17T16:10:45.392Z,17.60
2022-10-17T16:13:18.243Z,17.60
2022-10-17T16:15:46.378Z,17.60
2022-10-17T16:18:14.524Z,17.60
2022-10-17T16:20:42.637Z,17.60
2022-10-17T16:23:13.671Z,17.60
2022-10-17T16:25:42.096Z,17.60
2022-10-17T16:28:11.874Z,17.60
2022-10-17T16:30:45.935Z,17.60
2022-10-17T16:33:14.055Z,17.50
2022-10-17T16:35:42.126Z,17.50
2022-10-17T16:38:10.195Z,17.50
2022-10-17T16:40:40.358Z,17.50
2022-10-17T16:43:08.658Z,17.50
2022-10-17T16:45:37.526Z,17.50
2022-10-17T16:48:05.979Z,17.50
2022-10-17T16:50:35.653Z,17.50
2022-10-17T16:53:04.172Z,17.50
2022-10-17T16:55:32.172Z,17.50
2022-10-17T16:58:01.586Z,17.50
2022-10-17T17:00:29.885Z,17.50
2022-10-17T17:02:57.957Z,17.50
2022-10-17T17:05:25.927Z,17.50
2022-10-17T17:07:55.775Z,17.50
2022-10-17T17:10:23.817Z,17.50
2022-10-17T17:12:51.815Z,17.50
2022-10-17T17:15:21.148Z,17.50
2022-10-17T17:17:53.336Z,17.50
2022-10-17T17:20:23.237Z,17.50
2022-10-17T17:22:52.245Z,17.50
2022-10-17T17:25:20.461Z,17.40
2022-10-17T17:27:48.545Z,17.40
2022-10-17T17:30:16.804Z,17.40
2022-10-17T17:32:46.173Z,17.40
2022-10-17T17:35:14.183Z,17.40
2022-10-17T17:37:42.209Z,17.40
2022-10-17T17:40:11.339Z,17.40
2022-10-17T17:42:39.509Z,17.40
2022-10-17T17:45:08.560Z,17.30
2022-10-17T17:47:36.624Z,17.40
2022-10-17T17:50:06.775Z,17.40
2022-10-17T17:52:34.809Z,17.40
2022-10-17T17:55:02.917Z,17.30
2022-10-17T17:57:31.094Z,17.30
2022-10-17T17:59:59.075Z,17.30
2022-10-17T18:02:27.232Z,17.30
2022-10-17T18:04:55.308Z,17.30
2022-10-17T18:07:24.983Z,17.30
2022-10-17T18:09:53.169Z,17.30
2022-10-17T18:12:21.415Z,17.20
2022-10-17T18:14:49.562Z,17.20
2022-10-17T18:17:17.602Z,17.20
2022-10-17T18:19:45.595Z,17.20
2022-10-17T18:22:13.617Z,17.20
2022-10-17T18:24:42.979Z,17.20
2022-10-17T18:27:12.705Z,17.20
2022-10-17T18:29:40.726Z,17.20
2022-10-17T18:32:08.857Z,17.20
2022-10-17T18:34:36.880Z,17.20
2022-10-17T18:37:04.923Z,17.20
2022-10-17T18:39:32.972Z,17.20
2022-10-17T18:42:02.514Z,17.10
2022-10-17T18:44:30.741Z,17.20
2022-10-17T18:47:02.996Z,17.20
2022-10-17T18:49:32.573Z,17.10
2022-10-17T18:52:00.650Z,17.10
2022-10-17T18:54:29.321Z,17.10
2022-10-17T18:56:57.533Z,17.10
2022-10-17T18:59:27.165Z,17.10
2022-10-17T19:01:55.447Z,17.10
2022-10-17T19:04:23.609Z,17.10
2022-10-17T19:06:51.617Z,17.10
2022-10-17T19:09:20.039Z,17.10
2022-10-17T19:11:48.128Z,17.00
2022-10-17T19:14:16.817Z,17.00
2022-10-17T19:16:47.722Z,17.00
2022-10-17T19:19:17.502Z,17.00
2022-10-17T19:21:46.047Z,17.00
2022-10-17T19:24:16.788Z,17.00
2022-10-17T19:26:45.851Z,17.00
2022-10-17T19:29:15.401Z,17.00
2022-10-17T19:31:43.892Z,17.00
2022-10-17T19:34:14.346Z,17.00
2022-10-17T19:36:42.919Z,17.00
2022-10-17T19:39:13.568Z,17.00
2022-10-17T19:41:42.534Z,17.00
2022-10-17T19:44:10.840Z,16.90
2022-10-17T19:46:39.292Z,17.00
2022-10-17T19:49:08.170Z,16.90
2022-10-17T19:51:37.533Z,17.00
2022-10-17T19:54:05.675Z,17.00
2022-10-17T19:56:37.574Z,17.00
2022-10-17T19:59:06.961Z,17.00
2022-10-17T20:01:38.727Z,17.00
2022-10-17T20:04:07.661Z,17.00
2022-10-17T20:06:37.554Z,17.00
2022-10-17T20:09:06.896Z,17.00
2022-10-17T20:11:36.065Z,17.00
2022-10-17T20:14:04.128Z,17.00
2022-10-17T20:16:34.156Z,17.00
2022-10-17T20:19:06.538Z,17.00
2022-10-17T20:21:36.646Z,17.00
2022-10-17T20:24:07.758Z,17.00
2022-10-17T20:26:39.086Z,17.00
2022-10-17T20:29:15.502Z,17.00
2022-10-17T20:31:45.330Z,17.00
2022-10-17T20:34:15.953Z,17.00
2022-10-17T20:36:44.237Z,17.00
2022-10-17T20:39:15.301Z,17.00
2022-10-17T20:41:43.371Z,17.00
2022-10-17T20:44:12.022Z,17.00
2022-10-17T20:46:45.257Z,17.00
2022-10-17T20:49:22.643Z,17.00
2022-10-17T20:51:50.652Z,17.00
2022-10-17T20:54:21.892Z,17.00
2022-10-17T20:56:49.893Z,17.10
2022-10-17T20:59:18.858Z,17.10
2022-10-17T21:01:47.357Z,17.10
2022-10-17T21:04:44.188Z,17.10
2022-10-17T21:07:03.746Z,17.10
2022-10-17T21:09:33.114Z,17.10
2022-10-17T21:14:36.368Z,17.10
2022-10-17T21:17:05.436Z,17.10
2022-10-17T21:19:34.304Z,17.10
2022-10-17T21:22:02.355Z,17.10
2022-10-17T21:24:31.457Z,17.10
2022-10-17T21:27:00.858Z,17.10
2022-10-17T21:29:28.944Z,17.10
2022-10-17T21:31:57.062Z,17.10
2022-10-17T21:34:25.488Z,17.10
2022-10-17T21:36:54.266Z,17.10
2022-10-17T21:39:24.199Z,17.10
2022-10-17T21:41:53.286Z,17.10
2022-10-17T21:44:23.937Z,17.10
2022-10-17T21:46:53.334Z,17.10
2022-10-17T21:49:23.349Z,17.10
2022-10-17T21:51:52.613Z,17.10
2022-10-17T21:54:22.855Z,17.10
2022-10-17T21:56:51.656Z,17.10
2022-10-17T21:59:19.784Z,17.10
2022-10-17T22:01:49.199Z,17.00
2022-10-17T22:04:18.483Z,17.10
2022-10-17T22:06:50.919Z,17.00
2022-10-17T22:09:21.051Z,17.10
2022-10-17T22:11:52.008Z,17.10
2022-10-17T22:14:22.151Z,17.10
2022-10-17T22:16:51.810Z,17.10
2022-10-17T22:19:22.356Z,17.10
2022-10-17T22:21:50.437Z,17.10
2022-10-17T22:26:53.399Z,17.00
2022-10-17T22:29:21.828Z,17.10
2022-10-17T22:31:51.200Z,17.10
2022-10-17T22:34:21.313Z,17.10
2022-10-17T22:36:49.547Z,17.10
2022-10-17T22:39:17.869Z,17.10
2022-10-17T22:41:45.901Z,17.00
2022-10-17T22:44:14.018Z,17.00
2022-10-17T22:46:42.065Z,17.00
2022-10-17T22:49:11.528Z,17.00
2022-10-17T22:51:39.598Z,17.10
2022-10-17T22:54:07.685Z,17.10
2022-10-17T22:56:35.738Z,17.10
2022-10-17T22:59:03.767Z,17.10
2022-10-17T23:01:31.852Z,17.10
2022-10-17T23:04:00.084Z,17.10
2022-10-17T23:06:29.482Z,17.10
2022-10-17T23:08:57.546Z,17.10
2022-10-17T23:11:25.645Z,17.10
2022-10-17T23:13:53.676Z,17.10
2022-10-17T23:16:21.719Z,17.10
2022-10-17T23:18:49.738Z,17.10
2022-10-17T23:21:17.782Z,17.10
2022-10-17T23:23:47.117Z,17.10
2022-10-17T23:26:16.164Z,17.10
2022-10-17T23:28:44.544Z,17.00
2022-10-17T23:31:14.871Z,17.00
2022-10-17T23:33:44.829Z,17.10
2022-10-17T23:36:13.748Z,17.00
2022-10-17T23:38:42.256Z,17.10
2022-10-17T23:41:11.752Z,17.10
2022-10-17T23:43:59.861Z,17.10
2022-10-17T23:46:47.896Z,17.10
2022-10-17T23:49:36.024Z,17.10
2022-10-17T23:52:24.250Z,17.10
2022-10-17T23:55:12.392Z,17.10
2022-10-17T23:58:01.748Z,17.10
